Time;durP1;ratioP1;P1;durP2;ratioP2;P2;SDS_P1;SDS_P2;PMS_P1;PMS_P2;Temp;Humidity;BMP_temperature;BMP_pressure;BME280_temperature;BME280_humidity;BME280_pressure;Samples;Min_cycle;Max_cycle;Signal;HPM_P1;HPM_P2
2021/11/09 00:00:11;;;;;;;6.03;5.40;;;5.30;99.90;;;;;;5090621;28;20595;-60
2021/11/09 00:02:38;;;;;;;7.00;5.80;;;5.30;99.90;;;;;;5091180;28;20519;-57
2021/11/09 00:05:06;;;;;;;6.70;5.77;;;5.30;99.90;;;;;;5090941;28;20177;-61
2021/11/09 00:07:47;;;;;;;8.57;6.37;;;5.30;99.90;;;;;;5091002;28;20244;-60
2021/11/09 00:10:13;;;;;;;6.77;5.40;;;5.30;99.90;;;;;;5090860;28;20197;-61
2021/11/09 00:12:43;;;;;;;7.17;5.40;;;5.30;99.90;;;;;;5090812;28;20214;-57
2021/11/09 00:15:14;;;;;;;6.67;5.77;;;5.30;99.90;;;;;;5090836;28;20182;-58
2021/11/09 00:17:40;;;;;;;6.37;5.40;;;5.30;99.90;;;;;;5090428;28;20755;-59
2021/11/09 00:20:09;;;;;;;6.70;5.37;;;5.40;99.90;;;;;;5090743;28;20209;-61
2021/11/09 00:22:35;;;;;;;5.77;5.03;;;5.30;99.90;;;;;;5089841;28;20672;-57
2021/11/09 00:25:00;;;;;;;7.67;5.80;;;5.40;99.90;;;;;;5090227;28;20178;-61
2021/11/09 00:27:26;;;;;;;6.87;5.63;;;5.30;99.90;;;;;;5086382;28;20182;-60
2021/11/09 00:29:52;;;;;;;7.53;5.93;;;5.40;99.90;;;;;;5089614;28;20728;-60
2021/11/09 00:32:18;;;;;;;5.83;4.83;;;5.40;99.90;;;;;;5088046;28;20193;-60
2021/11/09 00:34:45;;;;;;;6.20;4.97;;;5.40;99.90;;;;;;5090363;28;20198;-61
2021/11/09 00:37:11;;;;;;;6.13;5.20;;;5.40;99.90;;;;;;5090381;28;20181;-59
2021/11/09 00:39:37;;;;;;;5.97;4.80;;;5.40;99.90;;;;;;5090140;28;20224;-61
2021/11/09 00:42:03;;;;;;;6.03;4.90;;;5.30;99.90;;;;;;5090510;28;20170;-61
2021/11/09 00:44:30;;;;;;;7.63;4.97;;;5.20;99.90;;;;;;5090114;28;20613;-60
2021/11/09 00:46:55;;;;;;;7.37;4.97;;;5.20;99.90;;;;;;5090297;28;20573;-61
2021/11/09 00:49:22;;;;;;;5.57;5.00;;;5.20;99.90;;;;;;5089898;28;20194;-60
2021/11/09 00:51:49;;;;;;;5.33;4.83;;;5.10;99.90;;;;;;5090378;28;20231;-59
2021/11/09 00:54:16;;;;;;;10.10;5.00;;;5.10;99.90;;;;;;5089887;28;20174;-59
2021/11/09 00:56:42;;;;;;;7.00;4.87;;;5.00;99.90;;;;;;5088692;28;20178;-59
2021/11/09 00:59:08;;;;;;;5.87;4.40;;;5.00;99.90;;;;;;5092344;28;20268;-60
2021/11/09 01:01:34;;;;;;;5.93;4.70;;;5.00;99.90;;;;;;5093480;28;20690;-58
2021/11/09 01:04:00;;;;;;;4.93;4.43;;;5.00;99.90;;;;;;5093780;28;20269;-61
2021/11/09 01:06:26;;;;;;;6.47;4.53;;;5.00;99.90;;;;;;5093157;28;20178;-60
2021/11/09 01:08:52;;;;;;;5.53;4.70;;;5.00;99.90;;;;;;5093739;28;20185;-61
2021/11/09 01:11:19;;;;;;;5.83;4.57;;;5.10;99.90;;;;;;5093235;28;20186;-61
2021/11/09 01:13:44;;;;;;;5.97;5.03;;;5.00;99.90;;;;;;5093924;28;20664;-59
2021/11/09 01:16:10;;;;;;;6.00;4.80;;;5.00;99.90;;;;;;5092931;28;20209;-59
2021/11/09 01:18:43;;;;;;;8.97;4.57;;;5.10;99.90;;;;;;5093397;28;20189;-58
2021/11/09 01:21:13;;;;;;;6.97;4.70;;;5.00;99.90;;;;;;5093334;28;20723;-62
2021/11/09 01:23:38;;;;;;;6.10;4.60;;;5.10;99.90;;;;;;5092822;28;20186;-62
2021/11/09 01:26:04;;;;;;;7.10;4.73;;;5.00;99.90;;;;;;5093194;28;20657;-59
2021/11/09 01:28:30;;;;;;;5.33;4.53;;;5.00;99.90;;;;;;5092827;28;20273;-61
2021/11/09 01:30:55;;;;;;;5.33;4.50;;;5.00;99.90;;;;;;5093170;28;20213;-60
2021/11/09 01:33:22;;;;;;;5.93;4.67;;;5.00;99.90;;;;;;5092826;28;20182;-62
2021/11/09 01:35:48;;;;;;;6.07;4.40;;;5.10;99.90;;;;;;5092870;28;20201;-61
2021/11/09 01:38:14;;;;;;;5.27;4.20;;;5.10;99.90;;;;;;5092391;28;20223;-61
2021/11/09 01:40:41;;;;;;;5.60;4.67;;;5.10;99.90;;;;;;5093034;28;20878;-59
2021/11/09 01:43:07;;;;;;;7.57;5.40;;;5.20;99.90;;;;;;5093164;28;20545;-61
2021/11/09 01:45:34;;;;;;;5.93;4.93;;;5.20;99.90;;;;;;5092353;28;20182;-60
2021/11/09 01:48:00;;;;;;;6.07;5.37;;;5.20;99.90;;;;;;5092561;28;20519;-60
2021/11/09 01:50:49;;;;;;;6.17;4.87;;;5.20;99.90;;;;;;5092644;28;20334;-60
2021/11/09 01:53:16;;;;;;;6.13;4.83;;;5.20;99.90;;;;;;5092901;28;20203;-60
2021/11/09 01:55:42;;;;;;;6.83;5.13;;;5.20;99.90;;;;;;5092475;28;20205;-60
2021/11/09 01:58:10;;;;;;;8.63;5.50;;;5.30;99.90;;;;;;5092529;28;20175;-61
2021/11/09 02:00:43;;;;;;;7.60;5.60;;;5.30;99.90;;;;;;5092389;28;20336;-61
2021/11/09 02:03:09;;;;;;;6.10;5.27;;;5.30;99.90;;;;;;5092739;28;20174;-63
2021/11/09 02:05:35;;;;;;;5.93;5.00;;;5.30;99.90;;;;;;5092278;28;20172;-62
2021/11/09 02:08:03;;;;;;;5.77;4.70;;;5.10;99.90;;;;;;5092275;28;20665;-59
2021/11/09 02:10:32;;;;;;;6.17;4.80;;;5.10;99.90;;;;;;5092190;28;20791;-61
2021/11/09 02:12:58;;;;;;;7.77;5.50;;;5.10;99.90;;;;;;5092386;28;20170;-62
2021/11/09 02:15:26;;;;;;;5.67;5.13;;;5.00;99.90;;;;;;5092336;28;20190;-60
2021/11/09 02:17:51;;;;;;;5.73;5.07;;;4.90;99.90;;;;;;5091830;28;20178;-60
2021/11/09 02:20:21;;;;;;;7.40;6.13;;;4.90;99.90;;;;;;5092213;28;20288;-61
2021/11/09 02:22:48;;;;;;;6.47;5.27;;;4.90;99.90;;;;;;5091955;28;20174;-60
2021/11/09 02:25:16;;;;;;;5.70;5.20;;;4.90;99.90;;;;;;5092319;28;20188;-61
2021/11/09 02:27:42;;;;;;;5.50;5.00;;;4.90;99.90;;;;;;5091719;28;20201;-61
2021/11/09 02:30:11;;;;;;;5.70;5.10;;;4.90;99.90;;;;;;5097123;22;20219;-55
2021/11/09 02:32:37;;;;;;;5.77;5.10;;;4.90;99.90;;;;;;5031526;28;20172;-51
2021/11/09 02:35:04;;;;;;;6.57;5.10;;;4.90;99.90;;;;;;5030458;28;20207;-56
2021/11/09 02:37:30;;;;;;;5.90;5.30;;;4.80;99.90;;;;;;5030516;28;20171;-54
2021/11/09 02:39:57;;;;;;;6.07;5.30;;;4.80;99.90;;;;;;5031423;28;20188;-53
2021/11/09 02:42:23;;;;;;;6.90;5.37;;;4.70;99.90;;;;;;5031201;28;20668;-56
2021/11/09 02:44:57;;;;;;;6.13;5.53;;;4.70;99.90;;;;;;5031323;28;20171;-56
2021/11/09 02:47:26;;;;;;;7.23;5.27;;;4.40;99.90;;;;;;5030521;28;20170;-50
2021/11/09 02:49:58;;;;;;;7.57;4.53;;;4.40;99.90;;;;;;5030979;28;20658;-51
2021/11/09 02:52:26;;;;;;;4.93;4.43;;;4.40;99.90;;;;;;5031097;28;20184;-52
2021/11/09 02:54:58;;;;;;;4.60;4.20;;;4.40;99.90;;;;;;5030812;28;20218;-56
2021/11/09 02:57:43;;;;;;;4.50;4.10;;;4.40;99.90;;;;;;5030324;28;20180;-56
2021/11/09 03:00:34;;;;;;;4.80;4.40;;;4.40;99.90;;;;;;5030894;28;20202;-56
2021/11/09 03:03:03;;;;;;;4.30;3.90;;;4.30;99.90;;;;;;5030475;28;20180;-55
2021/11/09 03:10:48;;;;;;;5.00;4.07;;;4.20;99.90;;;;;;5030584;28;20256;-53
2021/11/09 03:13:14;;;;;;;4.27;3.87;;;4.10;99.90;;;;;;5030827;28;20188;-54
2021/11/09 03:15:40;;;;;;;4.20;3.80;;;4.00;99.90;;;;;;5030462;28;20352;-55
2021/11/09 03:18:09;;;;;;;4.27;3.87;;;3.90;99.90;;;;;;5030058;28;20183;-55
2021/11/09 03:20:44;;;;;;;4.20;3.80;;;3.90;99.90;;;;;;5030039;28;20202;-52
2021/11/09 03:45:12;;;;;;;4.50;3.90;;;3.90;99.90;;;;;;5030556;28;20552;-52
2021/11/09 03:47:42;;;;;;;4.70;4.10;;;3.80;99.90;;;;;;5029390;28;20210;-53
2021/11/09 03:50:09;;;;;;;4.50;4.10;;;3.80;99.90;;;;;;5030487;28;20208;-56
2021/11/09 03:52:42;;;;;;;4.50;4.10;;;3.80;99.90;;;;;;5012473;28;20191;-50
2021/11/09 03:55:11;;;;;;;5.20;4.70;;;3.80;99.90;;;;;;5030224;28;20203;-55
2021/11/09 03:57:45;;;;;;;6.13;5.53;;;3.90;99.90;;;;;;5029481;28;20176;-50
2021/11/09 04:00:18;;;;;;;7.80;6.03;;;3.90;99.90;;;;;;5030263;28;20278;-53
2021/11/09 04:05:19;;;;;;;6.00;5.00;;;3.90;99.90;;;;;;5030398;28;20179;-54
2021/11/09 04:08:10;;;;;;;6.70;5.07;;;4.00;99.90;;;;;;5029619;28;20191;-55
2021/11/09 04:10:44;;;;;;;6.70;4.87;;;3.90;99.90;;;;;;5030349;28;20192;-56
2021/11/09 04:15:53;;;;;;;5.57;4.97;;;3.90;99.90;;;;;;5030474;28;20514;-56
2021/11/09 04:21:25;;;;;;;5.27;4.77;;;3.90;99.90;;;;;;5006909;28;20288;-55
2021/11/09 04:29:14;;;;;;;4.53;4.13;;;3.80;99.90;;;;;;5030252;28;20199;-53
2021/11/09 04:40:58;;;;;;;4.03;3.63;;;3.60;99.90;;;;;;5033680;28;20659;-55
2021/11/09 04:48:34;;;;;;;5.10;3.73;;;3.40;99.90;;;;;;5033458;28;20186;-53
2021/11/09 05:01:48;;;;;;;4.77;4.37;;;3.30;99.90;;;;;;5033272;28;20433;-54
2021/11/09 05:09:40;;;;;;;4.03;3.63;;;3.30;99.90;;;;;;5033616;28;20267;-55
2021/11/09 05:12:07;;;;;;;5.20;4.70;;;3.10;99.90;;;;;;5033212;28;20406;-54
2021/11/09 05:14:32;;;;;;;7.43;6.43;;;3.00;99.90;;;;;;5033139;28;20419;-53
2021/11/09 05:17:00;;;;;;;5.20;4.70;;;3.10;99.90;;;;;;5032160;28;20829;-56
2021/11/09 05:19:27;;;;;;;4.30;3.90;;;3.10;99.90;;;;;;5033096;28;20662;-54
2021/11/09 05:21:52;;;;;;;5.30;4.30;;;3.20;99.90;;;;;;5032957;28;20845;-50
2021/11/09 05:24:18;;;;;;;5.27;3.90;;;3.20;99.90;;;;;;5032906;28;20481;-52
2021/11/09 05:26:44;;;;;;;6.37;5.37;;;3.20;99.90;;;;;;5032297;28;20660;-53
2021/11/09 05:29:11;;;;;;;6.77;5.67;;;3.20;99.90;;;;;;5032644;28;20172;-57
2021/11/09 05:31:38;;;;;;;5.73;5.00;;;3.30;99.90;;;;;;5032681;28;20588;-51
2021/11/09 05:34:04;;;;;;;5.63;5.03;;;3.30;99.90;;;;;;5032869;28;20168;-51
2021/11/09 05:36:36;;;;;;;7.13;5.40;;;3.30;99.90;;;;;;5032072;28;20456;-56
2021/11/09 05:41:36;;;;;;;6.57;5.87;;;3.20;99.90;;;;;;5032860;28;20517;-49
2021/11/09 05:44:02;;;;;;;7.27;6.43;;;3.20;99.90;;;;;;5031998;28;20494;-51
2021/11/09 05:46:27;;;;;;;8.00;6.60;;;3.00;99.90;;;;;;5031787;28;20438;-50
2021/11/09 05:48:53;;;;;;;7.50;6.43;;;3.00;99.90;;;;;;5032307;28;20418;-51
2021/11/09 05:51:20;;;;;;;5.60;5.10;;;3.00;99.90;;;;;;5032420;28;20196;-52
2021/11/09 05:53:46;;;;;;;7.37;4.63;;;2.90;99.90;;;;;;5032441;28;20203;-55
2021/11/09 05:56:12;;;;;;;4.37;3.97;;;2.90;99.90;;;;;;5031499;28;21013;-54
2021/11/09 05:58:37;;;;;;;5.20;4.13;;;2.90;99.90;;;;;;5032302;28;20172;-54
2021/11/09 06:01:03;;;;;;;3.87;3.53;;;2.90;99.90;;;;;;5031907;28;20283;-49
2021/11/09 06:03:29;;;;;;;4.30;3.90;;;2.90;99.90;;;;;;5032400;28;20636;-54
2021/11/09 06:05:55;;;;;;;4.20;3.53;;;2.90;99.90;;;;;;5031941;28;20178;-59
2021/11/09 06:08:21;;;;;;;4.73;3.90;;;2.90;99.90;;;;;;5031446;28;20548;-52
2021/11/09 06:10:47;;;;;;;4.33;3.70;;;3.00;99.90;;;;;;5031416;28;20434;-54
2021/11/09 06:13:14;;;;;;;4.17;3.70;;;3.00;99.90;;;;;;5031702;28;20403;-53
2021/11/09 06:15:40;;;;;;;4.23;3.83;;;3.00;99.90;;;;;;5031483;28;20493;-49
2021/11/09 06:18:06;;;;;;;4.30;3.90;;;3.00;99.90;;;;;;5028625;28;20447;-53
2021/11/09 06:20:32;;;;;;;4.37;3.97;;;2.70;99.90;;;;;;5028740;28;20246;-50
2021/11/09 06:22:58;;;;;;;4.43;4.00;;;2.50;99.90;;;;;;5028744;28;20845;-48
2021/11/09 06:25:24;;;;;;;9.00;4.73;;;2.40;99.90;;;;;;5028621;28;20414;-49
2021/11/09 06:27:53;;;;;;;4.13;3.73;;;2.40;99.90;;;;;;5027607;28;20176;-55
2021/11/09 06:30:21;;;;;;;4.23;3.70;;;2.60;99.90;;;;;;5029865;28;20587;-51
2021/11/09 06:32:47;;;;;;;5.00;4.13;;;2.70;99.90;;;;;;5029760;28;20897;-53
2021/11/09 06:35:13;;;;;;;5.17;3.93;;;2.90;99.90;;;;;;5029718;28;20460;-52
2021/11/09 06:37:39;;;;;;;4.53;3.97;;;3.00;99.90;;;;;;5030292;28;20643;-53
2021/11/09 06:40:07;;;;;;;4.80;4.10;;;3.10;99.90;;;;;;5031341;28;20428;-54
2021/11/09 06:42:33;;;;;;;4.20;3.80;;;3.20;99.90;;;;;;5031283;28;20179;-56
2021/11/09 06:44:59;;;;;;;4.67;3.77;;;3.30;99.90;;;;;;5031164;28;20180;-51
2021/11/09 06:47:24;;;;;;;4.33;3.43;;;3.30;99.90;;;;;;5030539;28;20553;-49
2021/11/09 06:49:50;;;;;;;4.13;3.53;;;3.50;99.90;;;;;;5030949;28;20254;-56
2021/11/09 06:52:16;;;;;;;4.80;3.40;;;3.90;99.90;;;;;;5027071;28;20191;-52
2021/11/09 06:54:42;;;;;;;3.30;2.90;;;4.60;99.90;;;;;;5031115;28;20208;-53
2021/11/09 06:57:09;;;;;;;3.23;2.93;;;5.50;99.90;;;;;;5028980;28;20160;-57
2021/11/09 06:59:34;;;;;;;4.47;2.97;;;6.60;99.90;;;;;;5030690;28;20226;-52
2021/11/09 07:02:00;;;;;;;3.60;3.30;;;7.90;99.90;;;;;;5030968;28;20563;-54
2021/11/09 07:04:26;;;;;;;3.67;3.33;;;9.30;99.90;;;;;;5031201;28;20682;-55
2021/11/09 07:06:51;;;;;;;4.23;3.67;;;10.70;99.90;;;;;;5030648;28;20244;-55
2021/11/09 07:09:18;;;;;;;4.57;3.80;;;12.20;99.20;;;;;;5027738;28;20224;-55
2021/11/09 07:11:44;;;;;;;4.20;3.80;;;13.70;96.80;;;;;;5030266;28;20624;-56
2021/11/09 07:14:10;;;;;;;4.17;3.40;;;15.10;94.10;;;;;;5031100;28;20175;-55
2021/11/09 07:16:36;;;;;;;3.33;3.03;;;16.30;91.80;;;;;;5030468;28;20200;-51
2021/11/09 07:19:03;;;;;;;3.13;2.83;;;17.50;89.70;;;;;;5030943;28;20585;-49
2021/11/09 07:21:31;;;;;;;7.57;3.47;;;18.80;84.80;;;;;;5030593;28;20203;-57
2021/11/09 07:23:57;;;;;;;3.00;2.80;;;20.00;80.70;;;;;;5030616;28;20175;-50
2021/11/09 07:26:24;;;;;;;2.97;2.70;;;21.20;76.60;;;;;;5030348;28;20676;-56
2021/11/09 07:28:50;;;;;;;3.30;2.42;;;22.20;73.40;;;;;;5030628;28;20254;-56
2021/11/09 07:31:17;;;;;;;2.70;2.50;;;23.10;69.20;;;;;;5030800;28;20219;-56
2021/11/09 07:33:43;;;;;;;3.05;2.85;;;24.00;66.10;;;;;;5030436;28;20180;-50
2021/11/09 07:36:09;;;;;;;3.13;2.85;;;24.90;63.20;;;;;;5030445;28;20292;-50
2021/11/09 07:38:35;;;;;;;3.13;2.90;;;25.70;60.60;;;;;;5030374;28;20692;-50
2021/11/09 07:41:00;;;;;;;2.97;2.78;;;26.50;58.30;;;;;;5030288;28;20286;-53
2021/11/09 07:43:26;;;;;;;3.20;2.90;;;27.40;56.10;;;;;;5012452;28;20177;-53
2021/11/09 07:45:52;;;;;;;4.63;2.70;;;28.20;54.20;;;;;;5030294;28;20179;-56
2021/11/09 07:48:17;;;;;;;5.13;4.65;;;29.00;52.30;;;;;;5030075;28;20175;-48
2021/11/09 07:50:43;;;;;;;4.40;4.00;;;29.60;50.50;;;;;;5030185;28;20210;-50
2021/11/09 07:53:14;;;;;;;3.90;3.60;;;30.30;48.80;;;;;;5030293;28;20257;-48
2021/11/09 07:55:45;;;;;;;3.90;3.50;;;30.80;46.90;;;;;;5030219;28;20242;-57
2021/11/09 07:58:17;;;;;;;4.03;3.63;;;30.90;45.70;;;;;;5030264;28;20198;-53
2021/11/09 08:00:47;;;;;;;3.78;3.47;;;31.00;45.30;;;;;;5030476;28;20203;-53
2021/11/09 08:03:33;;;;;;;3.88;3.58;;;30.90;44.60;;;;;;5030259;28;20660;-54
2021/11/09 08:06:10;;;;;;;3.60;3.17;;;30.90;44.30;;;;;;5030298;28;20190;-50
2021/11/09 08:08:52;;;;;;;3.03;2.83;;;31.30;44.00;;;;;;5028953;28;20187;-51
2021/11/09 08:11:17;;;;;;;4.22;2.78;;;31.80;43.10;;;;;;5033660;28;20706;-57
2021/11/09 08:13:43;;;;;;;3.92;2.78;;;32.50;42.50;;;;;;5016084;28;20183;-52
2021/11/09 08:16:09;;;;;;;2.97;2.70;;;33.10;41.60;;;;;;5033779;28;20199;-53
2021/11/09 08:18:34;;;;;;;3.03;2.38;;;33.80;40.90;;;;;;5034054;28;20540;-52
2021/11/09 08:21:00;;;;;;;2.53;2.33;;;34.40;40.60;;;;;;5034605;28;20274;-48
2021/11/09 08:23:27;;;;;;;2.55;2.35;;;35.10;39.00;;;;;;5034324;28;20164;-49
2021/11/09 08:25:53;;;;;;;3.47;2.88;;;35.60;38.10;;;;;;5034173;28;20176;-48
2021/11/09 08:28:19;;;;;;;2.47;2.28;;;36.20;37.50;;;;;;5034313;28;20636;-50
2021/11/09 08:30:48;;;;;;;2.90;2.50;;;36.70;36.90;;;;;;5034058;28;20218;-54
2021/11/09 08:33:14;;;;;;;2.80;2.60;;;37.30;35.90;;;;;;5034332;28;20525;-51
2021/11/09 08:35:39;;;;;;;2.95;2.50;;;37.70;35.20;;;;;;5033316;28;20290;-52
2021/11/09 08:38:06;;;;;;;3.25;2.78;;;38.10;34.40;;;;;;5033819;28;20171;-56
2021/11/09 08:40:33;;;;;;;4.00;3.03;;;38.40;33.60;;;;;;5033625;28;20194;-51
2021/11/09 08:43:00;;;;;;;4.05;3.45;;;38.60;33.50;;;;;;5034071;28;20187;-56
2021/11/09 08:45:34;;;;;;;3.95;3.38;;;38.70;33.20;;;;;;5033256;28;20187;-50
2021/11/09 08:48:15;;;;;;;3.05;2.72;;;38.80;32.80;;;;;;5033702;28;20259;-50
2021/11/09 08:50:41;;;;;;;3.22;2.92;;;39.00;31.70;;;;;;5033813;28;20202;-52
2021/11/09 08:53:12;;;;;;;3.10;2.80;;;38.80;32.10;;;;;;5033748;28;20567;-54
2021/11/09 09:06:04;;;;;;;3.05;2.72;;;37.90;31.90;;;;;;5012488;28;20233;-60
2021/11/09 09:08:33;;;;;;;3.45;2.50;;;38.20;31.50;;;;;;5012357;28;20424;-62
2021/11/09 09:10:59;;;;;;;2.70;2.50;;;38.60;30.90;;;;;;5013264;28;20168;-62
2021/11/09 09:13:25;;;;;;;3.17;2.42;;;38.60;31.10;;;;;;5012865;28;20540;-65
2021/11/09 09:15:50;;;;;;;2.33;2.13;;;39.10;30.60;;;;;;5011927;28;20184;-61
2021/11/09 09:18:18;;;;;;;2.17;1.98;;;39.50;30.50;;;;;;4993804;28;20192;-62
2021/11/09 09:20:51;;;;;;;2.60;2.05;;;39.80;30.30;;;;;;4996041;28;20196;-62
2021/11/09 09:23:20;;;;;;;2.42;1.90;;;40.50;30.10;;;;;;4992895;28;20187;-63
2021/11/09 09:26:33;;;;;;;2.17;1.98;;;41.10;29.60;;;;;;4995798;28;20291;-63
2021/11/09 09:53:20;;;;;;;1.83;1.73;;;38.80;29.70;;;;;;5010420;28;20667;-63
2021/11/09 09:55:50;;;;;;;2.03;1.45;;;39.30;29.30;;;;;;5012331;28;20743;-62
2021/11/09 09:58:16;;;;;;;1.83;1.63;;;39.40;29.00;;;;;;5005667;28;20173;-62
2021/11/09 10:00:43;;;;;;;1.60;1.30;;;40.00;29.10;;;;;;4991982;28;20231;-65
2021/11/09 10:03:09;;;;;;;1.88;1.50;;;40.80;28.50;;;;;;5011283;28;20534;-63
2021/11/09 10:05:38;;;;;;;1.45;1.35;;;41.00;27.80;;;;;;5012495;28;20236;-64
2021/11/09 10:08:11;;;;;;;1.40;1.30;;;41.10;28.00;;;;;;5012009;28;20172;-63
2021/11/09 10:10:37;;;;;;;1.60;1.50;;;40.80;28.60;;;;;;5012148;28;20254;-64
2021/11/09 10:13:17;;;;;;;1.90;1.70;;;41.00;28.60;;;;;;5012358;28;20179;-63
2021/11/09 10:15:57;;;;;;;2.30;1.80;;;41.60;28.10;;;;;;5011112;28;20247;-64
2021/11/09 10:18:24;;;;;;;1.58;1.48;;;42.20;27.40;;;;;;5005587;28;20299;-62
2021/11/09 10:33:24;;;;;;;1.65;1.25;;;41.60;26.80;;;;;;5099725;27;20638;-63
2021/11/09 10:35:52;;;;;;;3.15;1.67;;;40.20;27.80;;;;;;5067122;28;20170;-62
2021/11/09 10:38:25;;;;;;;1.75;1.65;;;40.20;27.50;;;;;;5047423;28;20197;-62
2021/11/09 10:40:51;;;;;;;1.48;1.33;;;40.10;27.80;;;;;;5047185;28;20179;-63
2021/11/09 10:43:21;;;;;;;1.77;1.55;;;40.50;27.50;;;;;;5046514;28;20194;-63
2021/11/09 10:45:47;;;;;;;2.05;1.50;;;40.90;27.30;;;;;;5045937;28;20170;-63
2021/11/09 10:48:16;;;;;;;1.30;1.20;;;41.00;27.30;;;;;;5046452;28;20262;-63
2021/11/09 10:50:48;;;;;;;1.40;1.30;;;41.00;27.00;;;;;;5046441;28;20171;-64
2021/11/09 10:58:52;;;;;;;1.80;1.15;;;39.90;27.00;;;;;;5053137;28;20236;-63
2021/11/09 11:06:30;;;;;;;2.45;1.70;;;38.00;27.40;;;;;;5016933;28;20670;-58
2021/11/09 11:09:08;;;;;;;2.10;1.45;;;34.70;29.40;;;;;;5008187;28;20251;-58
2021/11/09 11:11:48;;;;;;;2.28;1.30;;;34.90;30.00;;;;;;5042688;28;20624;-60
2021/11/09 11:14:26;;;;;;;1.40;1.30;;;35.30;29.00;;;;;;5043112;28;20187;-58
2021/11/09 11:17:11;;;;;;;1.80;1.25;;;35.10;30.20;;;;;;5046619;28;20656;-56
2021/11/09 11:19:44;;;;;;;1.80;1.30;;;35.40;29.40;;;;;;5027227;28;20254;-58
2021/11/09 11:22:12;;;;;;;1.50;1.30;;;36.00;29.00;;;;;;5026564;28;20266;-55
2021/11/09 11:24:39;;;;;;;1.42;1.33;;;34.40;29.80;;;;;;5027289;28;20180;-53
2021/11/09 11:27:06;;;;;;;5.15;1.38;;;33.60;30.00;;;;;;5027056;28;20271;-58
2021/11/09 11:29:37;;;;;;;2.25;1.40;;;33.70;30.30;;;;;;5027042;28;20172;-52
2021/11/09 11:32:05;;;;;;;1.77;1.33;;;33.90;29.70;;;;;;5033262;28;20669;-57
2021/11/09 11:34:30;;;;;;;2.83;1.52;;;32.90;31.10;;;;;;5030386;28;20221;-57
2021/11/09 11:36:57;;;;;;;1.48;1.33;;;33.30;30.30;;;;;;5013778;28;20208;-58
2021/11/09 11:39:28;;;;;;;1.27;1.10;;;33.10;30.00;;;;;;5013481;28;20199;-58
2021/11/09 11:41:58;;;;;;;1.38;1.27;;;33.20;30.90;;;;;;5012065;28;20212;-57
2021/11/09 11:44:29;;;;;;;2.50;1.30;;;33.20;30.90;;;;;;5013396;28;20254;-59
2021/11/09 11:47:03;;;;;;;1.52;1.40;;;33.80;30.80;;;;;;5013487;28;20586;-56
2021/11/09 11:49:30;;;;;;;2.47;1.75;;;33.40;29.90;;;;;;5032220;28;20179;-55
2021/11/09 11:51:56;;;;;;;1.90;1.50;;;31.60;32.00;;;;;;5032798;28;20218;-54
2021/11/09 11:54:45;;;;;;;2.08;1.30;;;31.70;32.10;;;;;;5033307;28;20183;-56
2021/11/09 11:57:36;;;;;;;1.38;0.95;;;32.40;31.40;;;;;;5033172;28;20168;-57
2021/11/09 12:00:23;;;;;;;2.95;1.35;;;32.60;31.00;;;;;;5032105;28;20200;-58
2021/11/09 12:02:48;;;;;;;1.98;1.27;;;33.30;30.60;;;;;;5012325;28;20203;-55
2021/11/09 12:05:32;;;;;;;1.35;1.05;;;32.10;30.10;;;;;;5013051;28;20169;-56
2021/11/09 12:07:58;;;;;;;2.55;1.17;;;31.20;31.80;;;;;;5013069;28;20177;-54
2021/11/09 12:10:37;;;;;;;1.98;1.52;;;30.80;32.10;;;;;;5013763;28;20211;-55
2021/11/09 12:13:06;;;;;;;2.72;1.40;;;31.40;32.50;;;;;;5018108;28;20176;-56
2021/11/09 12:15:54;;;;;;;1.45;1.17;;;32.30;31.00;;;;;;5031451;28;20672;-56
2021/11/09 12:18:45;;;;;;;1.90;1.05;;;30.30;32.30;;;;;;5031598;28;20172;-58
2021/11/09 12:21:19;;;;;;;1.92;1.25;;;30.20;32.90;;;;;;5032520;28;20301;-58
2021/11/09 12:24:13;;;;;;;1.20;1.10;;;30.60;32.80;;;;;;5032084;28;20174;-54
2021/11/09 12:26:45;;;;;;;1.98;1.30;;;30.30;32.10;;;;;;5032096;28;20180;-57
2021/11/09 12:29:49;;;;;;;1.45;1.10;;;29.90;33.50;;;;;;5030442;28;20183;-57
2021/11/09 12:32:21;;;;;;;3.10;1.50;;;29.20;33.90;;;;;;5025118;28;20569;-58
2021/11/09 12:35:27;;;;;;;1.70;1.15;;;27.40;35.30;;;;;;5027770;28;20176;-56
2021/11/09 12:38:06;;;;;;;1.30;1.02;;;27.30;35.40;;;;;;5029691;28;20172;-57
2021/11/09 12:40:37;;;;;;;1.17;0.90;;;27.40;35.50;;;;;;5030187;28;20673;-57
2021/11/09 12:43:15;;;;;;;2.30;1.60;;;27.40;35.50;;;;;;5031876;28;20544;-55
2021/11/09 12:45:42;;;;;;;1.48;1.23;;;27.70;35.50;;;;;;5030777;28;20172;-58
2021/11/09 12:48:11;;;;;;;1.73;1.27;;;27.60;36.00;;;;;;5032239;28;20178;-58
2021/11/09 12:50:59;;;;;;;1.92;1.40;;;26.90;36.50;;;;;;5031388;28;20255;-58
2021/11/09 12:53:26;;;;;;;1.30;1.17;;;25.80;37.40;;;;;;5030909;28;20177;-59
2021/11/09 12:56:04;;;;;;;2.28;1.42;;;25.20;37.90;;;;;;5031124;28;20182;-60
2021/11/09 12:58:44;;;;;;;1.45;1.30;;;25.30;38.40;;;;;;5031268;28;20168;-58
2021/11/09 13:06:48;;;;;;;1.83;1.40;;;26.20;37.10;;;;;;5011860;28;20187;-60
2021/11/09 13:09:18;;;;;;;2.22;1.73;;;25.70;37.40;;;;;;5012259;28;20172;-59
2021/11/09 13:11:50;;;;;;;1.60;1.50;;;24.20;38.70;;;;;;4994313;28;20208;-60
2021/11/09 13:14:18;;;;;;;1.67;1.30;;;23.30;40.30;;;;;;5011820;28;20199;-56
2021/11/09 13:16:49;;;;;;;1.88;1.38;;;23.30;40.80;;;;;;5026128;28;20284;-59
2021/11/09 13:19:16;;;;;;;1.67;1.10;;;23.40;40.90;;;;;;5031214;28;20175;-57
2021/11/09 13:21:41;;;;;;;1.70;1.20;;;23.20;41.00;;;;;;5031451;28;20290;-54
2021/11/09 13:24:15;;;;;;;1.45;1.10;;;23.40;41.00;;;;;;5031127;28;20771;-57
2021/11/09 13:26:51;;;;;;;1.30;1.13;;;23.70;40.70;;;;;;5031345;28;20207;-58
2021/11/09 13:29:16;;;;;;;1.95;1.30;;;23.60;41.10;;;;;;5031185;28;20240;-57
2021/11/09 13:31:42;;;;;;;1.05;1.05;;;23.60;41.00;;;;;;5031206;28;20188;-59
2021/11/09 13:34:07;;;;;;;1.63;1.35;;;23.10;41.60;;;;;;5030661;28;20178;-57
2021/11/09 13:36:33;;;;;;;1.20;1.00;;;22.90;42.10;;;;;;5031043;28;20204;-60
2021/11/09 13:38:59;;;;;;;2.10;1.50;;;23.00;42.10;;;;;;5031130;28;20167;-59
2021/11/09 13:41:31;;;;;;;1.40;1.15;;;23.10;42.30;;;;;;5030831;28;20703;-58
2021/11/09 13:44:11;;;;;;;1.58;1.30;;;23.40;42.30;;;;;;5031168;28;20187;-59
2021/11/09 13:46:40;;;;;;;1.50;1.20;;;23.70;41.60;;;;;;5030724;28;20561;-59
2021/11/09 13:49:10;;;;;;;1.63;1.23;;;23.70;42.10;;;;;;5031051;28;20160;-56
2021/11/09 13:51:50;;;;;;;1.13;0.90;;;23.90;42.10;;;;;;5030503;28;20200;-56
2021/11/09 13:54:21;;;;;;;2.50;1.20;;;24.00;41.70;;;;;;5029322;28;20172;-55
2021/11/09 13:56:50;;;;;;;1.27;1.00;;;24.20;41.50;;;;;;5030412;28;20176;-60
2021/11/09 13:59:39;;;;;;;1.20;0.85;;;24.50;41.60;;;;;;5030763;28;20652;-59
2021/11/09 14:12:53;;;;;;;2.60;1.98;;;22.80;43.00;;;;;;5006479;28;20249;-60
2021/11/09 14:17:51;;;;;;;1.63;1.30;;;23.30;42.90;;;;;;5011087;28;20174;-59
2021/11/09 14:20:21;;;;;;;2.60;2.13;;;23.30;42.30;;;;;;5010703;28;20200;-59
2021/11/09 14:23:02;;;;;;;3.63;2.40;;;23.20;43.00;;;;;;5010688;28;20176;-58
2021/11/09 14:25:29;;;;;;;1.90;1.60;;;23.10;43.30;;;;;;5010490;28;20172;-59
2021/11/09 14:27:54;;;;;;;1.52;1.42;;;23.10;43.30;;;;;;5011408;28;20230;-59
2021/11/09 14:30:23;;;;;;;1.58;1.20;;;22.90;43.50;;;;;;5010877;28;20196;-57
2021/11/09 14:32:49;;;;;;;1.48;1.00;;;22.50;42.90;;;;;;5010175;28;20192;-58
2021/11/09 14:35:23;;;;;;;3.30;2.28;;;22.30;42.70;;;;;;5010958;28;20328;-59
2021/11/09 14:38:07;;;;;;;1.48;1.38;;;22.20;44.50;;;;;;5010888;28;20200;-58
2021/11/09 14:40:44;;;;;;;2.88;1.80;;;22.10;43.80;;;;;;5010624;28;20189;-57
2021/11/09 14:43:24;;;;;;;1.70;1.60;;;21.90;44.90;;;;;;5010422;28;20199;-59
2021/11/09 14:46:05;;;;;;;1.63;1.33;;;21.70;44.50;;;;;;5011223;28;20181;-58
2021/11/09 14:56:23;;;;;;;1.40;1.30;;;20.50;46.20;;;;;;5010611;28;20296;-57
2021/11/09 14:58:51;;;;;;;1.40;1.30;;;20.20;46.50;;;;;;5010551;28;20156;-59
2021/11/09 15:01:26;;;;;;;2.03;1.50;;;20.00;46.30;;;;;;5009841;28;20219;-58
2021/11/09 15:04:12;;;;;;;1.73;1.43;;;19.80;46.80;;;;;;5010333;28;20172;-59
2021/11/09 15:30:28;;;;;;;4.60;3.77;;;16.60;52.90;;;;;;5033610;28;20238;-60
2021/11/09 15:32:54;;;;;;;4.57;3.30;;;16.40;53.60;;;;;;5032897;28;20212;-57
2021/11/09 15:35:36;;;;;;;7.17;6.43;;;16.20;54.20;;;;;;5032993;28;20171;-54
2021/11/09 15:38:02;;;;;;;7.70;6.77;;;15.90;54.60;;;;;;5033521;28;20168;-55
2021/11/09 15:40:27;;;;;;;5.90;5.13;;;15.80;55.10;;;;;;5032897;28;20669;-58
2021/11/09 15:42:53;;;;;;;5.43;4.67;;;15.60;55.40;;;;;;5029118;28;20230;-55
2021/11/09 15:45:19;;;;;;;5.00;4.37;;;15.50;55.70;;;;;;5032157;28;20179;-57
2021/11/09 15:47:45;;;;;;;9.43;8.30;;;15.20;56.10;;;;;;5031594;28;20179;-56
2021/11/09 15:50:13;;;;;;;3.53;3.10;;;15.10;56.80;;;;;;5032286;28;20641;-61
2021/11/09 15:52:39;;;;;;;3.73;3.33;;;14.90;56.60;;;;;;5032145;28;20909;-56
2021/11/09 15:55:06;;;;;;;3.13;2.20;;;14.60;57.00;;;;;;5029892;28;20216;-55
2021/11/09 15:57:33;;;;;;;2.17;2.00;;;14.30;57.10;;;;;;5032092;28;20175;-57
2021/11/09 16:00:02;;;;;;;2.17;1.97;;;14.00;57.90;;;;;;5031941;28;20196;-60
2021/11/09 16:02:28;;;;;;;3.70;2.20;;;13.90;58.40;;;;;;5030114;28;20614;-59
2021/11/09 16:04:54;;;;;;;3.43;2.77;;;13.70;58.60;;;;;;5032612;28;20237;-57